Time;durP1;ratioP1;P1;durP2;ratioP2;P2;SDS_P1;SDS_P2;PMS_P1;PMS_P2;Temp;Humidity;BMP_temperature;BMP_pressure;BME280_temperature;BME280_humidity;BME280_pressure;Samples;Min_cycle;Max_cycle;Signal;HPM_P1;HPM_P2
2021/04/22 00:00:54;;;;;;;65.12;33.30;;;;;;;8.23;72.60;98486.75;2178576;82;21288;-72
2021/04/22 00:03:55;;;;;;;57.33;31.93;;;;;;;8.23;72.17;98491.11;2178461;81;21282;-72
2021/04/22 00:06:56;;;;;;;60.55;32.23;;;;;;;8.23;71.90;98488.50;2178721;81;21114;-72
2021/04/22 00:09:57;;;;;;;64.03;33.45;;;;;;;8.23;71.97;98485.45;2178491;81;21289;-72
2021/04/22 00:12:59;;;;;;;62.07;32.30;;;;;;;8.22;71.98;98483.75;2178998;81;21143;-72
2021/04/22 00:16:02;;;;;;;62.48;31.20;;;;;;;8.23;72.17;98481.97;2178450;81;21288;-71
2021/04/22 00:19:03;;;;;;;61.90;32.17;;;;;;;8.21;72.23;98483.36;2178576;81;21158;-72
2021/04/22 00:22:04;;;;;;;59.70;31.25;;;;;;;8.23;72.25;98484.14;2178391;81;21107;-72
2021/04/22 00:25:05;;;;;;;60.92;32.33;;;;;;;8.23;72.13;98481.53;2178453;81;21123;-71
2021/04/22 00:28:06;;;;;;;64.30;33.75;;;;;;;8.20;72.80;98479.06;2178490;81;21269;-72
2021/04/22 00:31:10;;;;;;;59.27;31.68;;;;;;;8.15;72.01;98474.10;2178427;81;21285;-72
2021/04/22 00:34:11;;;;;;;56.53;30.90;;;;;;;8.11;72.05;98477.81;2150953;82;21731;-72
2021/04/22 00:37:13;;;;;;;55.87;29.07;;;;;;;8.07;72.15;98478.08;2178736;81;21268;-71
2021/04/22 00:40:14;;;;;;;52.90;28.55;;;;;;;8.06;72.73;98473.33;2178435;81;21288;-72
2021/04/22 00:43:15;;;;;;;57.50;29.80;;;;;;;8.07;72.22;98472.86;2178406;81;21586;-72
2021/04/22 00:46:16;;;;;;;56.08;29.02;;;;;;;8.09;72.40;98478.85;2178390;81;21738;-72
2021/04/22 00:49:17;;;;;;;54.08;28.90;;;;;;;8.10;72.99;98473.98;2178429;81;21701;-72
2021/04/22 00:52:18;;;;;;;56.45;27.73;;;;;;;8.07;73.23;98472.38;2178378;81;21292;-72
2021/04/22 00:55:19;;;;;;;50.08;25.68;;;;;;;8.08;73.57;98475.38;2178453;81;21143;-72
2021/04/22 00:58:20;;;;;;;48.63;25.48;;;;;;;8.10;73.66;98473.54;2178447;81;21285;-72
2021/04/22 01:01:21;;;;;;;49.03;25.48;;;;;;;8.17;73.52;98474.48;2178509;81;21135;-71
2021/04/22 01:04:25;;;;;;;49.93;25.40;;;;;;;8.22;73.67;98476.39;2178408;81;21343;-72
2021/04/22 01:07:26;;;;;;;52.93;26.87;;;;;;;8.25;72.93;98461.84;2178438;81;21277;-72
2021/04/22 01:10:28;;;;;;;51.50;26.57;;;;;;;8.30;72.79;98463.70;2178749;81;21733;-72
2021/04/22 01:13:29;;;;;;;49.60;25.97;;;;;;;8.34;72.76;98467.83;2178664;81;21295;-72
2021/04/22 01:16:30;;;;;;;49.70;25.47;;;;;;;8.33;72.61;98451.77;2178645;81;21288;-72
2021/04/22 01:19:31;;;;;;;48.92;23.85;;;;;;;8.33;72.52;98457.85;2178512;81;21284;-72
2021/04/22 01:22:32;;;;;;;44.77;22.45;;;;;;;8.36;72.42;98454.67;2178388;81;21135;-72
2021/04/22 01:25:33;;;;;;;44.58;22.93;;;;;;;8.39;72.39;98455.80;2178352;81;21166;-72
2021/04/22 01:28:34;;;;;;;45.60;22.30;;;;;;;8.42;72.13;98457.78;2178393;81;21158;-72
2021/04/22 01:31:35;;;;;;;45.12;22.93;;;;;;;8.44;72.15;98453.33;2178356;81;21605;-72
2021/04/22 01:34:37;;;;;;;48.35;22.90;;;;;;;8.49;71.85;98459.59;2178650;81;21713;-72
2021/04/22 01:37:38;;;;;;;46.18;23.52;;;;;;;8.47;71.62;98454.45;2178522;81;21729;-71
2021/04/22 01:40:42;;;;;;;44.58;22.90;;;;;;;8.44;71.52;98451.16;2178329;81;21740;-71
2021/04/22 01:43:43;;;;;;;43.95;20.92;;;;;;;8.42;71.60;98453.00;2178680;81;21171;-72
2021/04/22 01:46:44;;;;;;;40.98;19.37;;;;;;;8.38;71.67;98452.35;2151070;82;21289;-72
2021/04/22 01:49:45;;;;;;;39.65;19.15;;;;;;;8.36;71.71;98458.14;2178341;81;21285;-72
2021/04/22 01:52:46;;;;;;;42.65;19.85;;;;;;;8.33;71.64;98457.85;2178362;81;21146;-72
2021/04/22 01:55:47;;;;;;;38.63;18.75;;;;;;;8.33;71.50;98451.77;2178406;81;21114;-72
2021/04/22 01:58:48;;;;;;;41.25;18.85;;;;;;;8.33;71.44;98453.07;2178619;82;21736;-72
2021/04/22 02:01:49;;;;;;;40.08;19.87;;;;;;;8.30;71.42;98448.89;2150723;82;21087;-72
2021/04/22 02:04:50;;;;;;;40.38;20.00;;;;;;;8.25;71.21;98449.60;2178448;81;21273;-72
2021/04/22 02:07:54;;;;;;;37.98;18.62;;;;;;;8.21;71.23;98453.31;2178374;81;21293;-73
2021/04/22 02:10:56;;;;;;;37.42;17.85;;;;;;;8.15;71.17;98453.68;2178577;81;21264;-72
2021/04/22 02:13:57;;;;;;;38.05;17.30;;;;;;;8.13;71.23;98451.16;2178319;81;21150;-72
2021/04/22 02:17:00;;;;;;;33.28;15.78;;;;;;;8.11;71.36;98447.77;2178358;81;21245;-72
2021/04/22 02:20:01;;;;;;;35.20;16.30;;;;;;;8.13;71.30;98447.68;2178382;81;21155;-73
2021/04/22 02:23:02;;;;;;;36.77;17.40;;;;;;;8.16;71.28;98447.53;2178342;81;21288;-72
2021/04/22 02:26:04;;;;;;;34.33;17.23;;;;;;;8.16;71.12;98442.31;2178684;81;21308;-72
2021/04/22 02:29:05;;;;;;;41.00;18.57;;;;;;;8.19;70.97;98438.66;2178367;82;21142;-72
2021/04/22 02:32:06;;;;;;;42.62;20.62;;;;;;;8.20;71.06;98433.81;2150700;82;21150;-72
2021/04/22 02:35:07;;;;;;;39.50;20.85;;;;;;;8.18;71.13;98429.16;2178337;81;21709;-72
2021/04/22 02:38:08;;;;;;;48.23;25.17;;;;;;;8.15;71.13;98430.17;2150936;82;21265;-72
2021/04/22 02:41:09;;;;;;;44.75;23.22;;;;;;;8.09;71.43;98421.38;2178770;82;21594;-72
2021/04/22 02:44:11;;;;;;;47.88;23.50;;;;;;;8.05;71.85;98422.01;2179041;81;21190;-72
2021/04/22 02:47:13;;;;;;;36.10;16.80;;;;;;;8.01;71.74;98440.56;2178082;82;21107;-72
2021/04/22 02:50:15;;;;;;;39.45;17.30;;;;;;;7.89;71.86;98446.84;2178463;81;21304;-72
2021/04/22 02:53:16;;;;;;;35.78;16.97;;;;;;;7.79;71.55;98448.30;2178362;81;21257;-72
2021/04/22 02:56:20;;;;;;;36.40;16.32;;;;;;;7.71;71.55;98443.95;2178370;81;21130;-72
2021/04/22 02:59:21;;;;;;;40.35;17.40;;;;;;;7.62;71.64;98445.30;2178369;82;21744;-72
2021/04/22 03:02:22;;;;;;;34.75;17.73;;;;;;;7.54;71.91;98442.27;2178357;82;21304;-72
2021/04/22 03:05:23;;;;;;;32.93;16.37;;;;;;;7.43;72.14;98451.52;2178334;81;21143;-72
2021/04/22 03:08:24;;;;;;;32.85;15.85;;;;;;;7.38;72.09;98446.17;2178352;81;21689;-72
2021/04/22 03:11:25;;;;;;;37.28;15.98;;;;;;;7.32;72.29;98453.86;2178326;81;21736;-72
2021/04/22 03:14:26;;;;;;;34.27;16.10;;;;;;;7.28;72.43;98461.03;2178331;81;21712;-72
2021/04/22 03:17:27;;;;;;;37.50;17.52;;;;;;;7.23;72.60;98464.33;2178349;82;21127;-72
2021/04/22 03:20:28;;;;;;;37.00;16.00;;;;;;;7.20;72.75;98452.77;2178638;81;21288;-72
2021/04/22 03:23:29;;;;;;;38.05;16.70;;;;;;;7.18;72.87;98461.11;2178367;81;21099;-72
2021/04/22 03:26:30;;;;;;;35.23;14.95;;;;;;;7.10;73.15;98470.66;2178693;82;21309;-72
2021/04/22 03:29:31;;;;;;;32.63;14.60;;;;;;;7.09;73.03;98470.73;2178336;81;21142;-72
2021/04/22 03:32:32;;;;;;;34.15;15.30;;;;;;;7.11;73.16;98471.48;2178264;81;21150;-72
2021/04/22 03:35:33;;;;;;;33.00;15.55;;;;;;;7.18;72.90;98473.32;2178492;81;21297;-72
2021/04/22 03:38:34;;;;;;;39.75;16.48;;;;;;;7.20;72.62;98485.84;2178340;81;21151;-72
2021/04/22 03:41:35;;;;;;;36.70;16.93;;;;;;;7.16;72.61;98482.53;2178298;81;21133;-72
2021/04/22 03:44:36;;;;;;;36.68;16.62;;;;;;;7.13;72.65;98488.39;2178276;81;21130;-72
2021/04/22 03:47:37;;;;;;;35.45;16.25;;;;;;;7.08;72.67;98493.82;2178500;81;21139;-72
2021/04/22 03:50:38;;;;;;;36.83;15.98;;;;;;;7.04;72.65;98489.68;2172573;81;21170;-72
2021/04/22 03:53:39;;;;;;;38.10;15.83;;;;;;;7.01;72.82;98508.09;2161180;82;21088;-72
2021/04/22 03:56:40;;;;;;;38.28;17.52;;;;;;;6.99;72.91;98519.09;2161131;82;21159;-72
2021/04/22 03:59:41;;;;;;;37.00;16.95;;;;;;;6.93;73.13;98511.95;2161249;82;21103;-72
2021/04/22 04:02:42;;;;;;;32.20;15.05;;;;;;;6.91;73.48;98524.67;2161097;82;21289;-72
2021/04/22 04:05:43;;;;;;;35.68;16.00;;;;;;;6.90;73.26;98524.31;2161079;82;21623;-72
2021/04/22 04:08:44;;;;;;;34.75;16.27;;;;;;;6.89;73.40;98535.65;2161371;82;21269;-72
2021/04/22 04:11:45;;;;;;;36.23;17.10;;;;;;;6.81;73.58;98544.31;2161409;82;21159;-72
2021/04/22 04:14:46;;;;;;;38.88;17.70;;;;;;;6.81;73.58;98544.31;2161332;82;21131;-72
2021/04/22 04:17:48;;;;;;;34.58;16.62;;;;;;;6.82;73.88;98539.48;2161079;82;21591;-72
2021/04/22 04:20:49;;;;;;;38.75;16.55;;;;;;;6.83;73.96;98540.71;2161293;82;21162;-72
2021/04/22 04:23:50;;;;;;;34.08;15.80;;;;;;;6.88;74.22;98549.59;2161036;82;21099;-72
2021/04/22 04:26:51;;;;;;;31.20;13.60;;;;;;;6.90;74.20;98549.08;2161414;82;21562;-72
2021/04/22 04:29:52;;;;;;;29.95;13.75;;;;;;;6.91;74.73;98552.91;2161024;82;21144;-71
2021/04/22 04:32:53;;;;;;;29.18;14.07;;;;;;;6.95;74.83;98560.10;2161268;82;21590;-72
2021/04/22 04:35:53;;;;;;;30.40;14.23;;;;;;;6.96;74.87;98563.10;2161417;82;21179;-72
2021/04/22 04:38:54;;;;;;;31.95;15.53;;;;;;;6.96;75.37;98575.31;2161047;82;21138;-72
2021/04/22 04:41:58;;;;;;;32.17;15.90;;;;;;;6.97;75.80;98586.09;2160958;82;21131;-72
2021/04/22 04:45:05;;;;;;;33.05;14.90;;;;;;;7.07;75.29;98579.53;2161029;82;21595;-72
2021/04/22 04:48:06;;;;;;;34.45;16.10;;;;;;;7.06;75.54;98586.48;2161053;82;21111;-71
2021/04/22 04:51:07;;;;;;;36.28;16.23;;;;;;;7.10;75.24;98576.76;2160970;82;21135;-72
2021/04/22 04:54:08;;;;;;;36.48;17.37;;;;;;;7.17;74.84;98572.91;2161401;82;21151;-71
2021/04/22 04:57:09;;;;;;;34.88;16.48;;;;;;;7.29;75.57;98578.79;2139921;82;21159;-72
2021/04/22 05:00:10;;;;;;;35.30;16.45;;;;;;;7.38;74.99;98570.11;2161370;82;21119;-72
2021/04/22 05:03:11;;;;;;;32.67;15.63;;;;;;;7.45;74.62;98579.31;2161044;82;21119;-71
2021/04/22 05:06:12;;;;;;;34.15;16.55;;;;;;;7.54;74.98;98597.55;2161033;82;21143;-72
2021/04/22 05:09:13;;;;;;;37.95;17.67;;;;;;;7.59;75.19;98592.48;2140972;82;21281;-72
2021/04/22 05:12:14;;;;;;;35.50;17.42;;;;;;;7.70;74.22;98587.15;2161340;82;21142;-72
2021/04/22 05:15:15;;;;;;;37.58;18.23;;;;;;;7.76;73.85;98602.03;2161079;82;21127;-72
2021/04/22 05:18:16;;;;;;;33.53;16.50;;;;;;;7.76;74.46;98603.34;2160993;82;21108;-72
2021/04/22 05:21:17;;;;;;;33.85;16.73;;;;;;;7.77;73.85;98605.04;2160948;82;21594;-72
2021/04/22 05:24:19;;;;;;;32.73;16.23;;;;;;;7.86;74.01;98606.75;2161051;82;21575;-71
2021/04/22 05:27:20;;;;;;;36.90;17.32;;;;;;;7.92;73.89;98607.28;2161014;82;21131;-72
2021/04/22 05:30:20;;;;;;;36.38;18.17;;;;;;;7.98;73.53;98608.72;2161088;82;21115;-72
2021/04/22 05:33:22;;;;;;;36.60;18.98;;;;;;;8.04;73.53;98610.99;2161035;82;21155;-72
2021/04/22 05:36:23;;;;;;;37.98;18.20;;;;;;;8.07;73.38;98613.91;2161157;82;21724;-72
2021/04/22 05:39:24;;;;;;;38.13;18.62;;;;;;;8.04;72.97;98623.22;2161225;82;21147;-71
2021/04/22 05:42:25;;;;;;;38.98;18.12;;;;;;;7.96;73.46;98621.87;2161056;82;21123;-72
2021/04/22 05:45:26;;;;;;;34.65;17.30;;;;;;;7.90;74.00;98634.39;2160956;82;21163;-72
2021/04/22 05:48:27;;;;;;;37.73;18.25;;;;;;;7.86;73.42;98630.25;2161078;82;21298;-72
2021/04/22 05:51:28;;;;;;;39.25;18.48;;;;;;;7.84;74.29;98636.03;2139870;82;21602;-72
2021/04/22 05:54:29;;;;;;;35.65;17.70;;;;;;;7.82;73.46;98645.26;2161011;82;21131;-72
2021/04/22 05:57:30;;;;;;;37.50;18.73;;;;;;;7.77;73.57;98652.03;2160984;82;21135;-72
2021/04/22 06:00:31;;;;;;;38.88;18.77;;;;;;;7.71;74.01;98660.64;2160973;82;21278;-72
2021/04/22 06:03:32;;;;;;;39.58;19.57;;;;;;;7.55;73.69;98657.50;2161098;82;21298;-72
2021/04/22 06:06:33;;;;;;;37.23;17.48;;;;;;;7.49;74.61;98660.44;2161288;82;21584;-72
2021/04/22 06:09:34;;;;;;;36.08;18.40;;;;;;;7.48;75.41;98674.87;2160961;82;21124;-72
2021/04/22 06:12:35;;;;;;;36.35;18.17;;;;;;;7.45;75.64;98671.48;2160938;82;21269;-72
2021/04/22 06:15:36;;;;;;;36.83;17.92;;;;;;;7.40;77.19;98675.27;2161186;82;21722;-72
2021/04/22 06:18:37;;;;;;;38.48;20.05;;;;;;;7.34;77.55;98679.47;2161037;82;21135;-73
2021/04/22 06:21:38;;;;;;;38.38;18.92;;;;;;;7.28;76.97;98677.57;2161137;82;21309;-73
2021/04/22 06:24:39;;;;;;;39.38;19.95;;;;;;;7.19;79.27;98684.53;2160922;82;21157;-72
2021/04/22 06:27:40;;;;;;;39.83;19.80;;;;;;;7.08;79.28;98684.21;2160951;82;21139;-74
2021/04/22 06:30:41;;;;;;;39.40;19.10;;;;;;;7.01;78.97;98683.69;2160912;82;21774;-73
2021/04/22 06:33:42;;;;;;;38.80;19.07;;;;;;;7.01;79.77;98692.81;2160985;82;21131;-73
2021/04/22 06:36:43;;;;;;;42.03;20.62;;;;;;;7.00;80.67;98687.67;2160925;82;21642;-72
2021/04/22 06:39:46;;;;;;;46.60;20.65;;;;;;;7.02;79.28;98694.95;2160901;81;21131;-73
2021/04/22 06:42:49;;;;;;;40.78;21.27;;;;;;;7.08;79.46;98699.86;2160913;82;21112;-73
2021/04/22 06:45:50;;;;;;;44.75;22.22;;;;;;;7.13;79.29;98699.66;2161277;82;21327;-73
2021/04/22 06:48:52;;;;;;;42.67;20.75;;;;;;;7.16;79.46;98709.94;2161096;82;21294;-73
2021/04/22 06:51:53;;;;;;;30.62;13.40;;;;;;;7.10;79.87;98725.42;2139848;82;21289;-73
2021/04/22 06:54:55;;;;;;;33.70;15.43;;;;;;;6.78;77.63;98743.89;2160884;82;21119;-73
2021/04/22 06:57:59;;;;;;;32.28;14.18;;;;;;;6.45;79.73;98753.64;2161127;82;21131;-73
2021/04/22 07:01:00;;;;;;;29.35;13.62;;;;;;;6.22;79.69;98758.12;2161238;82;21757;-72
2021/04/22 07:04:01;;;;;;;32.10;12.98;;;;;;;6.08;79.04;98754.84;2161158;82;21701;-73
2021/04/22 07:07:03;;;;;;;30.12;12.33;;;;;;;5.96;79.61;98767.91;2161310;82;21135;-73
2021/04/22 07:10:04;;;;;;;30.45;12.85;;;;;;;5.88;79.89;98768.22;2161172;82;21317;-73
2021/04/22 07:13:05;;;;;;;26.70;12.37;;;;;;;5.82;79.91;98776.73;2160949;82;21124;-73
2021/04/22 07:16:09;;;;;;;25.77;7.85;;;;;;;5.73;79.56;98781.87;2161054;82;21254;-74
2021/04/22 07:19:10;;;;;;;19.37;5.30;;;;;;;5.53;79.21;98824.33;2161056;82;21143;-73
2021/04/22 07:22:12;;;;;;;19.57;5.15;;;;;;;5.00;79.53;98826.39;2161055;82;21710;-73
2021/04/22 07:25:13;;;;;;;20.52;5.25;;;;;;;4.75;80.14;98839.45;2161360;82;21325;-73
2021/04/22 07:28:14;;;;;;;23.75;5.20;;;;;;;4.57;79.56;98831.03;2161137;82;21297;-73
2021/04/22 07:31:15;;;;;;;18.87;4.72;;;;;;;4.43;80.89;98827.19;2161444;82;21583;-74
2021/04/22 07:34:17;;;;;;;20.17;4.25;;;;;;;4.38;80.45;98835.58;2161259;82;21527;-74
2021/04/22 07:37:18;;;;;;;21.17;4.28;;;;;;;4.37;80.90;98844.30;2161122;82;21134;-73
2021/04/22 07:40:19;;;;;;;18.15;4.03;;;;;;;4.32;80.88;98849.66;2161204;82;21170;-73
2021/04/22 07:43:20;;;;;;;22.13;4.37;;;;;;;4.14;79.72;98873.20;2161420;82;21166;-73
2021/04/22 07:46:21;;;;;;;15.70;3.70;;;;;;;4.00;80.87;98866.33;2161126;82;21305;-72
2021/04/22 07:49:22;;;;;;;18.60;3.47;;;;;;;4.01;80.99;98862.84;2161111;82;21627;-73
2021/04/22 07:52:23;;;;;;;16.45;3.80;;;;;;;4.08;80.99;98857.84;2161054;81;21626;-73
2021/04/22 07:55:24;;;;;;;17.87;3.75;;;;;;;4.16;80.41;98858.41;2161111;82;21623;-73
2021/04/22 07:58:26;;;;;;;25.05;4.47;;;;;;;4.25;80.36;98864.19;2161104;82;21159;-74
2021/04/22 08:01:29;;;;;;;21.48;4.30;;;;;;;4.36;81.32;98870.33;2161199;82;21266;-73
2021/04/22 08:04:30;;;;;;;21.50;4.20;;;;;;;4.44;79.91;98871.75;2161054;82;21337;-74
2021/04/22 08:07:32;;;;;;;24.27;4.70;;;;;;;4.51;80.08;98870.63;2161171;82;21602;-73
2021/04/22 08:10:33;;;;;;;20.00;4.47;;;;;;;4.63;79.09;98873.70;2161004;82;21277;-74
2021/04/22 08:13:35;;;;;;;21.10;4.72;;;;;;;4.76;78.53;98871.50;2161329;82;21299;-72
2021/04/22 08:16:37;;;;;;;18.92;4.37;;;;;;;4.86;77.73;98871.09;2161330;82;21701;-73
2021/04/22 08:19:38;;;;;;;24.70;5.12;;;;;;;5.00;78.60;98880.98;2161419;82;21277;-72
2021/04/22 08:22:39;;;;;;;20.68;4.90;;;;;;;5.21;77.97;98883.67;2161089;82;21142;-72
2021/04/22 08:25:41;;;;;;;17.77;4.60;;;;;;;5.44;76.92;98878.88;2161094;81;21297;-72
2021/04/22 08:28:42;;;;;;;25.97;6.47;;;;;;;5.86;77.48;98878.09;2161077;82;21603;-72
2021/04/22 08:31:43;;;;;;;24.63;6.37;;;;;;;6.22;77.29;98877.50;2161059;82;21127;-73
2021/04/22 08:34:44;;;;;;;25.75;7.92;;;;;;;6.73;76.83;98883.58;2161065;82;21144;-72
2021/04/22 08:37:45;;;;;;;26.27;8.18;;;;;;;7.17;76.67;98883.77;2161048;82;21773;-72
2021/04/22 08:40:46;;;;;;;23.90;8.03;;;;;;;7.37;74.52;98874.58;2161306;82;21678;-72
2021/04/22 08:43:47;;;;;;;27.30;8.60;;;;;;;7.33;73.91;98874.80;2139997;82;21269;-72
2021/04/22 08:46:49;;;;;;;27.93;9.70;;;;;;;7.28;73.24;98878.47;2161303;82;21615;-72
2021/04/22 08:49:50;;;;;;;30.62;10.00;;;;;;;7.16;73.18;98882.94;2161030;82;21146;-72
2021/04/22 08:52:51;;;;;;;26.42;8.73;;;;;;;7.14;73.80;98885.22;2161274;81;21741;-72
2021/04/22 08:55:52;;;;;;;27.13;8.65;;;;;;;7.18;73.51;98882.86;2161066;82;21590;-72
2021/04/22 08:58:53;;;;;;;25.70;8.10;;;;;;;7.25;72.50;98890.80;2161645;82;21312;-72
2021/04/22 09:01:55;;;;;;;25.48;7.65;;;;;;;7.32;72.40;98897.42;2161128;82;21138;-73
2021/04/22 09:04:56;;;;;;;27.85;7.83;;;;;;;7.28;70.86;98884.99;2161014;82;21297;-72
2021/04/22 09:07:57;;;;;;;26.73;7.55;;;;;;;7.29;71.42;98889.27;2161109;82;21123;-72
2021/04/22 09:11:01;;;;;;;25.08;6.87;;;;;;;7.51;74.59;98897.39;2161373;82;21595;-73
2021/04/22 09:14:02;;;;;;;28.62;7.90;;;;;;;7.46;71.99;98898.09;2161010;82;21757;-73
2021/04/22 09:17:04;;;;;;;27.37;7.22;;;;;;;7.51;72.40;98900.00;2161245;81;21293;-73
2021/04/22 09:20:05;;;;;;;24.80;7.25;;;;;;;7.48;70.89;98884.97;2161025;82;21139;-72
2021/04/22 09:23:06;;;;;;;25.15;6.50;;;;;;;7.55;71.54;98886.37;2161271;82;21705;-72
2021/04/22 09:26:07;;;;;;;22.70;5.92;;;;;;;7.64;71.49;98884.61;2161008;82;21151;-73
2021/04/22 09:29:08;;;;;;;20.62;5.25;;;;;;;7.70;67.59;98883.03;2160999;82;21591;-72
2021/04/22 09:32:09;;;;;;;22.65;5.90;;;;;;;7.83;66.56;98885.89;2161279;82;21289;-72
2021/04/22 09:35:10;;;;;;;25.48;6.58;;;;;;;7.93;67.14;98875.81;2161149;82;21262;-73
2021/04/22 09:38:11;;;;;;;23.00;5.53;;;;;;;7.75;66.44;98882.80;2161117;82;21718;-72
2021/04/22 09:41:12;;;;;;;21.55;5.62;;;;;;;7.71;66.33;98883.39;2161098;82;21119;-73
2021/04/22 09:44:14;;;;;;;25.68;5.72;;;;;;;7.96;65.87;98883.05;2161311;82;21286;-72
2021/04/22 09:47:15;;;;;;;22.87;5.33;;;;;;;8.63;66.70;98875.37;2161115;82;21701;-73
2021/04/22 09:50:17;;;;;;;21.45;4.55;;;;;;;9.16;58.91;98877.33;2161208;82;21289;-73
2021/04/22 09:53:18;;;;;;;24.90;4.70;;;;;;;9.24;58.74;98879.55;2161036;81;21274;-73
2021/04/22 09:56:19;;;;;;;19.32;4.40;;;;;;;9.17;58.99;98870.34;2161015;82;21145;-73
2021/04/22 09:59:20;;;;;;;21.02;5.10;;;;;;;9.16;59.75;98865.55;2161221;82;21701;-72
2021/04/22 10:02:21;;;;;;;18.25;4.22;;;;;;;9.19;62.19;98867.17;2161173;82;21181;-73
2021/04/22 10:05:22;;;;;;;18.95;3.90;;;;;;;8.71;57.97;98881.49;2160970;82;21183;-73
2021/04/22 10:08:23;;;;;;;17.23;4.10;;;;;;;8.19;56.28;98881.51;2161328;82;21304;-72
2021/04/22 10:11:24;;;;;;;16.82;4.00;;;;;;;8.51;57.03;98896.91;2160964;82;21116;-73
2021/04/22 10:14:25;;;;;;;20.02;4.33;;;;;;;9.13;58.73;98891.06;2160995;82;21139;-73
2021/04/22 10:17:26;;;;;;;19.73;4.78;;;;;;;9.47;55.23;98883.99;2160984;82;21113;-73
2021/04/22 10:20:27;;;;;;;20.45;4.12;;;;;;;9.40;52.80;98873.00;2161033;82;21583;-73
2021/04/22 10:23:29;;;;;;;16.25;3.62;;;;;;;9.30;54.48;98874.45;2161068;82;21682;-73
2021/04/22 10:26:30;;;;;;;22.82;4.70;;;;;;;9.56;49.32;98891.80;2160915;82;21151;-72
2021/04/22 10:29:31;;;;;;;18.77;3.95;;;;;;;9.69;52.89;98862.67;2140003;82;21625;-73
2021/04/22 10:32:32;;;;;;;21.52;4.00;;;;;;;9.93;50.17;98866.11;2161042;82;21571;-73
2021/04/22 10:35:34;;;;;;;19.87;4.30;;;;;;;10.15;51.45;98858.70;2161174;81;21621;-72
2021/04/22 10:38:35;;;;;;;18.70;3.90;;;;;;;10.24;52.71;98857.31;2160927;82;21104;-73
2021/04/22 10:41:36;;;;;;;21.20;4.62;;;;;;;9.66;51.03;98866.30;2161011;82;21088;-73
2021/04/22 10:44:37;;;;;;;18.00;4.00;;;;;;;9.22;53.46;98877.46;2161072;82;21159;-72
2021/04/22 10:47:38;;;;;;;17.52;3.70;;;;;;;9.19;51.92;98872.41;2160977;82;21642;-73
2021/04/22 10:50:39;;;;;;;17.25;3.95;;;;;;;9.48;49.97;98868.20;2161032;82;21567;-72
2021/04/22 10:53:40;;;;;;;15.68;3.02;;;;;;;9.63;48.44;98886.12;2161116;81;21203;-72
2021/04/22 10:56:41;;;;;;;17.37;3.67;;;;;;;9.50;45.30;98879.89;2160981;82;21134;-73
2021/04/22 10:59:44;;;;;;;14.23;3.60;;;;;;;9.66;46.65;98870.23;2160937;82;21583;-72
2021/04/22 11:02:44;;;;;;;14.83;3.30;;;;;;;9.77;46.94;98875.31;2160901;82;21618;-73
2021/04/22 11:05:45;;;;;;;14.95;3.22;;;;;;;9.45;46.44;98881.91;2160998;82;21313;-73
2021/04/22 11:08:47;;;;;;;17.00;3.30;;;;;;;9.31;51.13;98885.27;2161197;82;21293;-73
2021/04/22 11:11:48;;;;;;;18.55;4.15;;;;;;;9.28;49.06;98885.45;2160920;82;21119;-72
2021/04/22 11:14:51;;;;;;;17.15;3.72;;;;;;;9.32;47.61;98878.67;2160944;82;21150;-72
2021/04/22 11:17:52;;;;;;;17.95;3.80;;;;;;;9.27;45.64;98889.84;2139938;82;21297;-73
2021/04/22 11:20:53;;;;;;;20.30;4.33;;;;;;;9.53;49.26;98868.77;2160875;82;21449;-73
2021/04/22 11:23:54;;;;;;;19.37;3.62;;;;;;;9.97;46.97;98890.77;2160945;82;21188;-72
2021/04/22 11:26:55;;;;;;;15.05;3.15;;;;;;;10.32;43.11;98895.72;2160932;82;21610;-73
2021/04/22 11:29:57;;;;;;;20.85;3.67;;;;;;;10.34;44.86;98893.91;2160941;82;21127;-73
2021/04/22 11:32:58;;;;;;;15.30;3.50;;;;;;;10.35;44.53;98868.03;2161168;82;21139;-72
2021/04/22 11:35:59;;;;;;;22.00;3.90;;;;;;;10.64;43.50;98874.63;2161201;82;21578;-73
2021/04/22 11:39:00;;;;;;;18.87;4.12;;;;;;;10.83;44.66;98856.45;2160953;82;21126;-73
2021/04/22 11:42:02;;;;;;;17.07;3.90;;;;;;;11.02;45.80;98857.02;2161015;82;21096;-72
2021/04/22 11:45:03;;;;;;;20.57;4.03;;;;;;;10.91;42.70;98873.41;2160940;82;21172;-72
2021/04/22 11:48:04;;;;;;;19.55;4.50;;;;;;;10.79;42.68;98883.36;2160882;82;21754;-73
2021/04/22 11:51:05;;;;;;;18.62;3.85;;;;;;;10.91;44.47;98863.39;2161126;82;21286;-72
2021/04/22 11:54:06;;;;;;;17.77;3.70;;;;;;;11.26;43.23;98887.45;2160884;81;21619;-71
2021/04/22 11:57:07;;;;;;;15.48;3.70;;;;;;;11.35;41.66;98868.09;2161023;82;21122;-73
2021/04/22 12:00:09;;;;;;;18.20;3.55;;;;;;;11.36;44.27;98877.19;2161056;82;21139;-73
2021/04/22 12:03:10;;;;;;;20.57;4.75;;;;;;;11.33;44.71;98851.13;2161264;82;21615;-73
2021/04/22 12:06:11;;;;;;;18.48;4.30;;;;;;;11.36;41.51;98868.00;2161044;82;21171;-73
2021/04/22 12:09:12;;;;;;;16.67;3.67;;;;;;;11.35;41.28;98862.39;2161282;82;21698;-73
2021/04/22 12:12:13;;;;;;;17.57;3.55;;;;;;;11.66;41.31;98876.17;2161543;82;21159;-72
2021/04/22 12:15:14;;;;;;;20.00;4.20;;;;;;;11.70;41.31;98855.33;2161368;82;21168;-72
2021/04/22 12:18:15;;;;;;;19.65;4.05;;;;;;;11.83;39.66;98855.37;2161208;82;21116;-72
2021/04/22 12:21:16;;;;;;;21.05;3.90;;;;;;;11.91;38.96;98852.22;2161074;82;21282;-72
2021/04/22 12:24:21;;;;;;;19.50;4.15;;;;;;;11.50;41.47;98846.11;2161759;82;21277;-72
2021/04/22 12:27:20;;;;;;;17.15;4.10;;;;;;;11.34;42.37;98830.98;2160759;82;21265;-72
2021/04/22 12:30:22;;;;;;;23.45;4.10;;;;;;;11.76;42.38;98842.27;2161383;82;21709;-73
2021/04/22 12:33:23;;;;;;;16.77;3.73;;;;;;;11.76;40.88;98840.95;2161381;82;21289;-73
2021/04/22 12:36:24;;;;;;;16.93;3.67;;;;;;;11.28;41.43;98844.03;2161067;82;21111;-73
2021/04/22 12:39:25;;;;;;;15.10;3.62;;;;;;;10.75;41.99;98840.71;2161144;82;21605;-73
2021/04/22 12:42:26;;;;;;;18.98;4.35;;;;;;;10.92;41.74;98849.34;2161073;82;21590;-73
2021/04/22 12:45:27;;;;;;;16.70;3.85;;;;;;;11.43;42.49;98848.76;2161131;82;21750;-73
2021/04/22 12:48:28;;;;;;;19.37;4.28;;;;;;;11.77;40.82;98850.05;2161316;82;21304;-73
2021/04/22 12:51:29;;;;;;;18.75;3.65;;;;;;;11.76;41.65;98831.75;2161154;82;21151;-73
2021/04/22 12:54:30;;;;;;;21.20;4.47;;;;;;;11.78;37.80;98821.52;2173487;81;21159;-72
2021/04/22 12:57:32;;;;;;;19.82;3.80;;;;;;;11.87;38.62;98819.23;2178610;82;21716;-73
2021/04/22 13:00:33;;;;;;;19.57;3.72;;;;;;;12.00;41.34;98827.17;2178461;81;21187;-73
2021/04/22 13:03:34;;;;;;;16.02;3.72;;;;;;;11.38;38.20;98842.98;2178841;81;21265;-73
2021/04/22 13:06:35;;;;;;;16.90;3.10;;;;;;;10.53;38.65;98846.89;2178447;81;21276;-72
2021/04/22 13:09:37;;;;;;;17.82;3.70;;;;;;;10.35;41.78;98830.02;2178451;81;21551;-73
2021/04/22 13:12:38;;;;;;;17.52;3.80;;;;;;;10.30;41.00;98840.38;2178421;82;21143;-73
2021/04/22 13:15:39;;;;;;;20.95;3.62;;;;;;;10.39;40.19;98842.50;2178430;82;21613;-73
2021/04/22 13:18:40;;;;;;;17.07;3.75;;;;;;;10.21;41.50;98839.14;2178806;81;21574;-73
2021/04/22 13:21:43;;;;;;;14.98;3.30;;;;;;;10.15;40.16;98850.00;2178787;81;21118;-73
2021/04/22 13:24:44;;;;;;;18.80;3.72;;;;;;;10.41;42.00;98843.23;2178415;81;21328;-73
2021/04/22 13:27:45;;;;;;;17.27;3.67;;;;;;;10.29;40.41;98847.89;2178514;81;21162;-73
2021/04/22 13:30:46;;;;;;;19.50;4.12;;;;;;;10.80;38.72;98837.80;2178391;81;21299;-73
2021/04/22 13:33:47;;;;;;;17.00;3.80;;;;;;;10.73;40.27;98835.18;2178519;82;21720;-73
2021/04/22 13:36:48;;;;;;;16.87;3.75;;;;;;;10.70;40.54;98828.37;2178676;81;21281;-73
2021/04/22 13:39:49;;;;;;;19.15;4.25;;;;;;;10.92;42.18;98840.98;2178344;81;21284;-73
2021/04/22 13:42:50;;;;;;;21.10;4.35;;;;;;;11.57;40.38;98825.07;2178404;81;21606;-73
2021/04/22 13:45:51;;;;;;;20.88;4.85;;;;;;;11.58;40.17;98857.45;2178402;81;21146;-73
2021/04/22 13:48:52;;;;;;;18.85;3.77;;;;;;;11.02;39.26;98841.27;2178437;81;21289;-73
2021/04/22 13:51:53;;;;;;;17.15;4.05;;;;;;;10.85;40.79;98833.13;2178374;81;21626;-73
2021/04/22 13:54:54;;;;;;;19.60;3.90;;;;;;;10.93;40.54;98849.69;2178335;81;21154;-72
2021/04/22 13:57:58;;;;;;;21.82;4.47;;;;;;;11.19;39.13;98834.95;2178387;81;21606;-73
2021/04/22 14:00:59;;;;;;;19.60;3.87;;;;;;;11.51;38.82;98860.11;2178470;82;21316;-73
2021/04/22 14:04:00;;;;;;;13.93;3.58;;;;;;;11.63;38.14;98839.59;2178358;81;21264;-73